createdAt,value
2023-01-07T00:01:36.114Z,8.80
2023-01-07T00:04:06.565Z,8.27
2023-01-07T00:06:38.337Z,8.63
2023-01-07T00:09:08.683Z,8.23
2023-01-07T00:11:39.520Z,7.90
2023-01-07T00:14:09.329Z,8.65
2023-01-07T00:16:38.269Z,8.57
2023-01-07T00:19:08.073Z,8.77
2023-01-07T00:21:37.597Z,8.55
2023-01-07T00:24:07.549Z,8.90
2023-01-07T00:26:37.856Z,9.00
2023-01-07T00:29:07.447Z,8.55
2023-01-07T00:31:37.270Z,8.85
2023-01-07T00:34:09.504Z,9.15
2023-01-07T00:36:44.470Z,8.20
2023-01-07T00:39:17.095Z,8.13
2023-01-07T00:42:06.699Z,8.65
2023-01-07T00:44:36.971Z,8.75
2023-01-07T00:47:05.255Z,9.55
2023-01-07T00:49:33.444Z,9.07
2023-01-07T00:52:03.195Z,9.15
2023-01-07T00:54:31.382Z,9.02
2023-01-07T00:56:59.533Z,8.82
2023-01-07T00:59:27.754Z,8.43
2023-01-07T01:01:56.019Z,8.20
2023-01-07T01:04:24.263Z,8.27
2023-01-07T01:06:52.359Z,8.10
2023-01-07T01:09:22.499Z,8.65
2023-01-07T01:11:50.683Z,7.93
2023-01-07T01:14:18.747Z,7.70
2023-01-07T01:16:47.052Z,7.53
2023-01-07T01:19:18.337Z,8.48
2023-01-07T01:21:46.526Z,7.85
2023-01-07T01:24:14.900Z,7.70
2023-01-07T01:26:44.487Z,7.50
2023-01-07T01:29:12.812Z,7.40
2023-01-07T01:31:41.090Z,7.95
2023-01-07T01:34:09.150Z,7.75
2023-01-07T01:36:38.523Z,7.88
2023-01-07T01:39:06.907Z,7.32
2023-01-07T01:41:35.354Z,7.55
2023-01-07T01:44:45.592Z,7.65
2023-01-07T01:47:20.813Z,7.43
2023-01-07T01:49:55.273Z,6.45
2023-01-07T01:52:28.265Z,6.78
2023-01-07T01:55:01.307Z,6.07
2023-01-07T01:57:32.638Z,6.45
2023-01-07T02:00:02.526Z,6.80
2023-01-07T02:02:35.126Z,6.82
2023-01-07T02:07:31.819Z,6.22
2023-01-07T02:10:02.139Z,5.75
2023-01-07T02:12:45.011Z,6.13
2023-01-07T02:18:01.575Z,5.90
2023-01-07T02:20:47.587Z,5.72
2023-01-07T02:24:04.251Z,5.97
2023-01-07T02:26:57.548Z,5.43
2023-01-07T02:32:37.488Z,5.70
2023-01-07T02:35:17.168Z,6.37
2023-01-07T02:37:57.490Z,6.00
2023-01-07T02:40:31.654Z,6.30
2023-01-07T02:43:14.619Z,6.47
2023-01-07T02:45:50.696Z,7.35
2023-01-07T02:48:22.773Z,7.82
2023-01-07T02:50:50.926Z,7.43
2023-01-07T02:53:21.469Z,7.05
2023-01-07T02:56:04.253Z,6.22
2023-01-07T02:58:57.350Z,6.03
2023-01-07T03:04:15.095Z,5.97
2023-01-07T03:06:58.790Z,5.65
2023-01-07T03:09:33.826Z,5.82
2023-01-07T03:12:09.298Z,5.65
2023-01-07T03:14:41.880Z,5.63
2023-01-07T03:17:14.966Z,6.15
2023-01-07T03:19:48.536Z,5.80
2023-01-07T03:22:20.933Z,5.72
2023-01-07T03:24:52.336Z,5.53
2023-01-07T03:27:23.911Z,5.65
2023-01-07T03:29:54.246Z,5.97
2023-01-07T03:32:27.434Z,5.00
2023-01-07T03:34:57.480Z,4.78
2023-01-07T03:37:28.046Z,4.88
2023-01-07T03:39:56.509Z,4.90
2023-01-07T03:42:40.211Z,4.93
2023-01-07T03:45:12.684Z,5.22
2023-01-07T03:47:50.191Z,5.60
2023-01-07T03:50:20.216Z,5.13
2023-01-07T03:52:49.603Z,5.07
2023-01-07T03:55:18.472Z,4.90
2023-01-07T03:57:46.807Z,5.00
2023-01-07T04:00:16.464Z,4.50
2023-01-07T04:02:45.045Z,5.10
2023-01-07T04:05:13.335Z,4.68
2023-01-07T04:07:42.963Z,4.63
2023-01-07T04:10:11.708Z,4.85
2023-01-07T04:12:39.754Z,4.25
2023-01-07T04:15:08.858Z,4.82
2023-01-07T04:17:37.005Z,5.05
2023-01-07T04:20:07.903Z,4.68
2023-01-07T04:22:38.391Z,5.18
2023-01-07T04:25:08.683Z,4.85
2023-01-07T04:27:37.308Z,4.72
2023-01-07T04:30:09.353Z,4.63
2023-01-07T04:32:37.497Z,4.53
2023-01-07T04:35:06.115Z,5.38
2023-01-07T04:37:34.206Z,5.00
2023-01-07T04:40:02.452Z,4.72
2023-01-07T04:42:31.962Z,4.60
2023-01-07T04:45:00.031Z,4.85
2023-01-07T04:47:28.148Z,4.72
2023-01-07T04:49:56.261Z,4.55
2023-01-07T04:52:24.331Z,4.85
2023-01-07T04:54:52.407Z,4.75
2023-01-07T04:57:20.512Z,4.88
2023-01-07T04:59:49.981Z,4.43
2023-01-07T05:02:18.072Z,4.28
2023-01-07T05:04:47.290Z,4.50
2023-01-07T05:07:15.414Z,5.05
2023-01-07T05:09:43.467Z,4.13
2023-01-07T05:12:11.548Z,4.18
2023-01-07T05:14:39.614Z,4.38
2023-01-07T05:17:09.114Z,4.07
2023-01-07T05:19:37.187Z,4.20
2023-01-07T05:22:05.399Z,4.35
2023-01-07T05:24:33.489Z,3.97
2023-01-07T05:27:01.555Z,4.50
2023-01-07T05:29:29.643Z,4.45
2023-01-07T05:31:57.755Z,4.60
2023-01-07T05:34:27.272Z,4.70
2023-01-07T05:36:55.416Z,4.00
2023-01-07T05:39:23.603Z,4.18
2023-01-07T05:41:51.682Z,4.35
2023-01-07T05:44:20.071Z,4.30
2023-01-07T05:46:48.164Z,4.07
2023-01-07T05:49:16.326Z,4.00
2023-01-07T05:51:45.785Z,4.03
2023-01-07T05:54:13.831Z,4.28
2023-01-07T05:56:42.007Z,4.05
2023-01-07T05:59:10.151Z,4.18
2023-01-07T06:01:38.340Z,4.00
2023-01-07T06:04:06.634Z,4.00
2023-01-07T06:06:34.691Z,4.30
2023-01-07T06:09:04.521Z,4.40
2023-01-07T06:11:32.712Z,4.10
2023-01-07T06:14:00.874Z,3.72
2023-01-07T06:16:28.973Z,3.33
2023-01-07T06:18:57.130Z,3.78
2023-01-07T06:21:25.264Z,3.83
2023-01-07T06:23:53.384Z,3.50
2023-01-07T06:26:22.889Z,3.50
2023-01-07T06:28:52.669Z,3.40
2023-01-07T06:31:20.770Z,3.50
2023-01-07T06:33:48.871Z,3.17
2023-01-07T06:36:16.996Z,3.20
2023-01-07T06:38:45.159Z,3.17
2023-01-07T06:41:13.383Z,3.28
2023-01-07T06:43:42.850Z,3.20
2023-01-07T06:46:11.111Z,2.92
2023-01-07T06:48:39.235Z,2.67
2023-01-07T06:51:07.577Z,3.20
2023-01-07T06:53:35.948Z,2.90
2023-01-07T06:56:04.099Z,2.83
2023-01-07T06:58:34.548Z,2.78
2023-01-07T07:01:06.566Z,2.70
2023-01-07T07:03:35.096Z,2.20
2023-01-07T07:06:03.311Z,2.42
2023-01-07T07:08:31.420Z,2.42
2023-01-07T07:10:59.654Z,2.45
2023-01-07T07:13:27.790Z,2.42
2023-01-07T07:15:55.946Z,2.28
2023-01-07T07:18:26.968Z,2.20
2023-01-07T07:20:55.327Z,2.25
2023-01-07T07:23:23.387Z,2.45
2023-01-07T07:25:51.495Z,2.33
2023-01-07T07:28:19.566Z,2.22
2023-01-07T07:30:48.380Z,2.30
2023-01-07T07:33:19.335Z,2.25
2023-01-07T07:35:49.703Z,2.33
2023-01-07T07:38:19.156Z,2.10
2023-01-07T07:40:47.486Z,2.00
2023-01-07T07:43:16.150Z,1.75
2023-01-07T07:45:44.581Z,1.80
2023-01-07T07:48:15.156Z,1.83
2023-01-07T07:50:43.548Z,1.90
2023-01-07T07:53:14.068Z,1.90
2023-01-07T07:55:42.193Z,1.90
2023-01-07T07:58:10.349Z,1.73
2023-01-07T08:00:38.557Z,1.90
2023-01-07T08:03:06.758Z,1.77
2023-01-07T08:05:34.951Z,1.60
2023-01-07T08:08:03.310Z,2.00
2023-01-07T08:10:32.780Z,1.60
2023-01-07T08:13:00.916Z,2.05
2023-01-07T08:15:29.084Z,2.00
2023-01-07T08:18:00.768Z,1.88
2023-01-07T08:20:29.780Z,2.35
2023-01-07T08:23:00.364Z,2.08
2023-01-07T08:25:28.600Z,2.40
2023-01-07T08:27:58.604Z,2.42
2023-01-07T08:30:27.070Z,2.53
2023-01-07T08:32:55.613Z,2.47
2023-01-07T08:35:24.018Z,2.20
2023-01-07T08:37:52.168Z,2.50
2023-01-07T08:40:20.710Z,2.80
2023-01-07T08:42:49.344Z,2.10
2023-01-07T08:45:18.930Z,2.17
2023-01-07T08:47:48.540Z,2.85
2023-01-07T08:50:16.794Z,3.10
2023-01-07T08:52:46.940Z,2.63
2023-01-07T08:55:15.268Z,2.70
2023-01-07T08:57:43.362Z,2.38
2023-01-07T09:00:15.753Z,2.20
2023-01-07T09:02:45.630Z,1.90
2023-01-07T09:05:14.191Z,1.90
2023-01-07T09:07:42.645Z,1.88
2023-01-07T09:10:11.829Z,1.75
2023-01-07T09:12:40.038Z,2.25
2023-01-07T09:15:09.633Z,2.20
2023-01-07T09:17:37.743Z,2.00
2023-01-07T09:20:09.354Z,2.05
2023-01-07T09:22:38.207Z,2.10
2023-01-07T09:25:07.844Z,1.80
2023-01-07T09:27:35.975Z,2.15
2023-01-07T09:30:08.154Z,1.95
2023-01-07T09:32:36.360Z,2.17
2023-01-07T09:35:04.716Z,1.70
2023-01-07T09:37:34.201Z,2.10
2023-01-07T09:40:02.319Z,1.67
2023-01-07T09:42:41.060Z,1.60
2023-01-07T09:45:20.223Z,1.73
2023-01-07T09:47:52.271Z,1.42
2023-01-07T09:50:29.126Z,1.60
2023-01-07T09:53:03.777Z,1.58
2023-01-07T09:55:35.152Z,1.70
2023-01-07T09:58:03.568Z,1.42
2023-01-07T10:00:33.753Z,1.67
2023-01-07T10:03:15.508Z,1.50
2023-01-07T10:05:57.315Z,1.55
2023-01-07T10:08:37.997Z,1.40
2023-01-07T10:11:18.706Z,1.33
2023-01-07T10:14:05.134Z,1.40
2023-01-07T10:16:42.114Z,1.50
2023-01-07T10:19:21.693Z,1.45
2023-01-07T10:21:54.810Z,1.52
2023-01-07T10:24:28.286Z,1.55
2023-01-07T10:26:59.131Z,1.25
2023-01-07T10:29:33.278Z,1.50
2023-01-07T10:32:08.554Z,2.00
2023-01-07T10:34:45.052Z,1.48
2023-01-07T10:37:21.308Z,1.67
2023-01-07T10:39:57.843Z,1.98
2023-01-07T10:42:34.089Z,1.60
2023-01-07T10:45:30.385Z,1.60
2023-01-07T10:48:24.107Z,1.58
2023-01-07T10:51:01.072Z,1.45
2023-01-07T10:53:40.662Z,1.50
2023-01-07T10:56:23.043Z,1.10
2023-01-07T10:58:52.309Z,1.40
2023-01-07T11:01:26.004Z,1.30
2023-01-07T11:03:56.433Z,1.48
2023-01-07T11:06:35.316Z,1.25
2023-01-07T11:09:08.642Z,1.50
2023-01-07T11:11:39.595Z,1.20
2023-01-07T11:14:13.697Z,1.35
2023-01-07T11:16:46.706Z,1.30
2023-01-07T11:19:15.557Z,1.20
2023-01-07T11:21:45.636Z,1.35
2023-01-07T11:24:31.530Z,1.25
2023-01-07T11:27:08.028Z,0.95
2023-01-07T11:29:40.577Z,1.08
2023-01-07T11:32:21.367Z,1.02
2023-01-07T11:34:56.424Z,1.20
2023-01-07T11:37:39.328Z,1.00
2023-01-07T11:40:22.783Z,1.33
2023-01-07T11:42:55.165Z,1.08
2023-01-07T11:45:25.124Z,1.23
2023-01-07T11:48:02.789Z,1.10
2023-01-07T11:50:36.706Z,1.20
2023-01-07T11:53:22.979Z,1.20
2023-01-07T11:56:00.009Z,1.40
2023-01-07T11:58:31.532Z,1.20
2023-01-07T12:01:21.617Z,1.00
2023-01-07T12:04:14.359Z,1.20
2023-01-07T12:06:47.320Z,1.30
2023-01-07T12:09:25.526Z,1.20
2023-01-07T12:11:56.169Z,1.10
2023-01-07T12:14:31.520Z,1.30
2023-01-07T12:17:11.580Z,1.75
2023-01-07T12:20:22.689Z,1.30
2023-01-07T12:22:58.883Z,1.30
2023-01-07T12:25:45.833Z,1.10
2023-01-07T12:28:17.261Z,1.17
2023-01-07T12:31:19.849Z,1.30
2023-01-07T12:34:04.699Z,1.20
2023-01-07T12:36:40.591Z,1.38
2023-01-07T12:39:15.651Z,1.20
2023-01-07T12:41:58.133Z,1.48
2023-01-07T12:44:26.522Z,1.45
2023-01-07T12:47:30.832Z,1.20
2023-01-07T12:50:00.812Z,1.30
2023-01-07T12:52:38.198Z,1.40
2023-01-07T12:55:18.776Z,1.60
2023-01-07T12:57:55.362Z,1.60
2023-01-07T13:00:27.253Z,1.50
2023-01-07T13:03:10.248Z,1.30
2023-01-07T13:05:43.371Z,1.30
2023-01-07T13:08:16.616Z,1.65
2023-01-07T13:10:49.757Z,1.35
2023-01-07T13:13:28.625Z,1.65
2023-01-07T13:15:57.331Z,1.50
2023-01-07T13:18:26.866Z,1.50
2023-01-07T13:21:05.356Z,1.50
2023-01-07T13:23:52.276Z,1.60
2023-01-07T13:26:33.888Z,1.85
2023-01-07T13:29:12.552Z,1.80
2023-01-07T13:31:55.323Z,1.90
2023-01-07T13:34:37.619Z,1.95
2023-01-07T13:37:22.820Z,1.67
2023-01-07T13:40:07.197Z,2.10
2023-01-07T13:42:46.199Z,2.00
2023-01-07T13:45:20.301Z,2.08
2023-01-07T13:47:51.668Z,2.20
2023-01-07T13:50:30.661Z,2.17
2023-01-07T13:53:01.968Z,1.98
2023-01-07T13:55:36.609Z,2.50
2023-01-07T13:58:44.877Z,2.30
2023-01-07T14:01:15.222Z,2.47
2023-01-07T14:03:50.845Z,2.53
2023-01-07T14:06:45.787Z,2.50
2023-01-07T14:09:25.879Z,2.42
2023-01-07T14:12:27.612Z,3.25
2023-01-07T14:15:11.396Z,2.60
2023-01-07T14:17:50.704Z,3.30
2023-01-07T14:20:27.852Z,2.50
2023-01-07T14:23:09.192Z,2.70
2023-01-07T14:25:50.200Z,3.13
2023-01-07T14:28:34.302Z,2.95
2023-01-07T14:31:03.168Z,3.35
2023-01-07T14:33:36.247Z,3.17
2023-01-07T14:36:07.692Z,3.03
2023-01-07T14:39:04.197Z,2.97
2023-01-07T14:41:32.351Z,2.67
2023-01-07T14:44:20.126Z,2.85
2023-01-07T14:46:52.004Z,2.50
2023-01-07T14:50:08.835Z,2.85
2023-01-07T14:53:23.085Z,2.55
2023-01-07T14:56:18.221Z,2.95
2023-01-07T14:59:08.818Z,2.67
2023-01-07T15:02:15.716Z,2.88
2023-01-07T15:05:16.462Z,2.75
2023-01-07T15:07:48.959Z,2.83
2023-01-07T15:10:39.666Z,2.90
2023-01-07T15:13:33.425Z,2.60
2023-01-07T15:16:02.763Z,2.47
2023-01-07T15:18:33.513Z,2.20
2023-01-07T15:21:15.829Z,2.67
2023-01-07T15:23:49.889Z,2.40
2023-01-07T15:26:25.991Z,2.42
2023-01-07T15:29:04.169Z,2.78
2023-01-07T15:31:42.885Z,2.53
2023-01-07T15:34:14.006Z,2.22
2023-01-07T15:36:45.311Z,2.60
2023-01-07T15:39:21.293Z,2.30
2023-01-07T15:41:53.206Z,2.30
2023-01-07T15:44:29.006Z,2.53
2023-01-07T15:46:57.469Z,2.50
2023-01-07T15:49:26.604Z,2.47
2023-01-07T15:51:56.877Z,2.33
2023-01-07T15:54:27.978Z,2.45
2023-01-07T15:57:00.356Z,2.53
2023-01-07T15:59:33.357Z,2.50
2023-01-07T16:02:07.211Z,2.30
2023-01-07T16:04:38.709Z,2.63
2023-01-07T16:07:06.993Z,2.17
2023-01-07T16:09:35.461Z,2.42
2023-01-07T16:12:03.666Z,2.03
2023-01-07T16:14:38.245Z,2.40
2023-01-07T16:17:14.598Z,2.08
2023-01-07T16:19:43.221Z,2.03
2023-01-07T16:22:15.189Z,2.17
2023-01-07T16:24:49.153Z,2.38
2023-01-07T16:27:18.488Z,2.33
2023-01-07T16:29:53.142Z,2.35
2023-01-07T16:32:23.775Z,2.15
2023-01-07T16:34:59.166Z,2.70
2023-01-07T16:37:29.326Z,2.35
2023-01-07T16:39:57.780Z,2.28
2023-01-07T16:42:27.464Z,2.42
2023-01-07T16:45:03.348Z,2.20
2023-01-07T16:47:33.398Z,2.40
2023-01-07T16:50:36.182Z,2.42
2023-01-07T16:53:04.652Z,2.28
2023-01-07T16:55:50.747Z,2.50
2023-01-07T16:58:27.327Z,2.20
2023-01-07T17:00:59.785Z,2.17
2023-01-07T17:03:29.658Z,2.20
2023-01-07T17:06:03.675Z,2.28
2023-01-07T17:08:32.743Z,2.30
2023-01-07T17:11:09.279Z,2.47
2023-01-07T17:13:39.914Z,2.22
2023-01-07T17:16:34.061Z,2.40
2023-01-07T17:19:26.036Z,2.58
2023-01-07T17:21:54.579Z,2.55
2023-01-07T17:24:47.778Z,2.47
2023-01-07T17:29:50.064Z,2.20
2023-01-07T17:32:19.590Z,2.35
2023-01-07T17:34:47.736Z,2.60
2023-01-07T17:37:17.305Z,2.40
2023-01-07T17:39:45.748Z,2.50
2023-01-07T17:42:40.446Z,2.50
2023-01-07T17:45:14.810Z,2.63
2023-01-07T17:47:44.768Z,3.00
2023-01-07T17:50:15.737Z,2.55
2023-01-07T17:52:46.002Z,3.00
2023-01-07T17:55:21.284Z,3.35
2023-01-07T17:57:49.417Z,3.15
2023-01-07T18:00:20.781Z,3.88
2023-01-07T18:02:51.058Z,2.92
2023-01-07T18:05:20.734Z,3.60
2023-01-07T18:07:49.501Z,3.25
2023-01-07T18:10:20.463Z,3.65
2023-01-07T18:12:48.171Z,3.60
2023-01-07T18:15:22.737Z,3.72
2023-01-07T18:17:52.247Z,3.20
2023-01-07T18:20:21.908Z,3.40
2023-01-07T18:22:50.455Z,3.75
2023-01-07T18:25:21.153Z,4.25
2023-01-07T18:27:52.788Z,3.33
2023-01-07T18:30:22.645Z,3.58
2023-01-07T18:32:53.778Z,3.40
2023-01-07T18:35:22.806Z,3.60
2023-01-07T18:37:51.547Z,3.30
2023-01-07T18:40:20.306Z,3.88
2023-01-07T18:42:48.414Z,3.40
2023-01-07T18:45:19.516Z,3.72
2023-01-07T18:47:47.772Z,3.53
2023-01-07T18:50:17.777Z,4.07
2023-01-07T18:52:45.854Z,3.97
2023-01-07T18:55:16.196Z,3.63
2023-01-07T18:57:44.280Z,3.53
2023-01-07T19:00:13.552Z,3.85
2023-01-07T19:02:41.615Z,3.90
2023-01-07T19:05:10.156Z,3.80
2023-01-07T19:07:40.124Z,3.92
2023-01-07T19:10:09.470Z,3.88
2023-01-07T19:12:37.518Z,3.90
2023-01-07T19:15:06.365Z,4.32
2023-01-07T19:17:34.472Z,3.35
2023-01-07T19:20:02.868Z,3.15
2023-01-07T19:22:31.177Z,3.30
2023-01-07T19:25:00.691Z,3.30
2023-01-07T19:27:29.176Z,3.47
2023-01-07T19:29:57.266Z,3.42
2023-01-07T19:32:25.415Z,3.33
2023-01-07T19:34:53.461Z,3.58
2023-01-07T19:37:22.072Z,3.65
2023-01-07T19:39:50.456Z,3.30
2023-01-07T19:42:19.995Z,3.00
2023-01-07T19:44:48.067Z,2.80
2023-01-07T19:47:17.275Z,2.80
2023-01-07T19:49:46.394Z,3.28
2023-01-07T19:52:14.644Z,2.97
2023-01-07T19:54:43.002Z,3.08
2023-01-07T19:57:11.603Z,2.72
2023-01-07T19:59:41.390Z,2.67
2023-01-07T20:02:09.656Z,2.60
2023-01-07T20:04:40.109Z,2.88
2023-01-07T20:07:08.214Z,2.85
2023-01-07T20:09:36.411Z,2.90
2023-01-07T20:12:05.086Z,2.65
2023-01-07T20:14:33.236Z,2.60
2023-01-07T20:17:02.756Z,2.88
2023-01-07T20:19:30.864Z,2.55
2023-01-07T20:21:58.947Z,2.58
2023-01-07T20:24:27.072Z,2.90
2023-01-07T20:26:55.371Z,2.92
2023-01-07T20:29:23.390Z,2.55
2023-01-07T20:31:51.693Z,2.80
2023-01-07T20:34:21.283Z,2.70
2023-01-07T20:36:49.428Z,2.30
2023-01-07T20:39:17.578Z,2.40
2023-01-07T20:41:45.814Z,2.47
2023-01-07T20:44:14.105Z,2.20
2023-01-07T20:46:42.472Z,2.67
2023-01-07T20:49:11.823Z,2.53
2023-01-07T20:51:41.286Z,3.53
2023-01-07T20:54:09.342Z,2.22
2023-01-07T20:56:37.503Z,2.33
2023-01-07T20:59:05.614Z,2.38
2023-01-07T21:01:33.931Z,2.10
2023-01-07T21:04:02.591Z,2.20
2023-01-07T21:06:31.031Z,1.77
2023-01-07T21:09:00.678Z,2.17
2023-01-07T21:11:28.796Z,1.95
2023-01-07T21:13:56.871Z,2.00
2023-01-07T21:16:25.684Z,2.10
2023-01-07T21:18:56.659Z,1.98
2023-01-07T21:21:25.686Z,1.85
2023-01-07T21:23:54.621Z,1.80
2023-01-07T21:26:24.942Z,1.85
2023-01-07T21:28:55.971Z,2.10
2023-01-07T21:31:25.461Z,2.08
2023-01-07T21:33:55.984Z,1.85
2023-01-07T21:36:25.925Z,1.77
2023-01-07T21:38:55.921Z,2.03
2023-01-07T21:41:26.005Z,1.83
2023-01-07T21:43:54.135Z,2.00
2023-01-07T21:46:23.042Z,1.90
2023-01-07T21:48:51.911Z,1.90
2023-01-07T21:51:22.297Z,2.00
2023-01-07T21:53:52.444Z,2.10
2023-01-07T21:56:21.228Z,1.88
2023-01-07T21:58:50.785Z,2.28
2023-01-07T22:01:19.995Z,2.05
2023-01-07T22:03:50.010Z,2.00
2023-01-07T22:06:20.574Z,2.08
2023-01-07T22:08:55.736Z,1.90
2023-01-07T22:11:24.400Z,2.20
2023-01-07T22:13:55.295Z,2.03
2023-01-07T22:16:25.448Z,2.30
2023-01-07T22:18:53.642Z,2.35
2023-01-07T22:21:21.859Z,2.20
2023-01-07T22:23:50.475Z,2.30
2023-01-07T22:26:19.972Z,2.30
2023-01-07T22:28:53.625Z,2.90
2023-01-07T22:31:25.693Z,2.70
2023-01-07T22:33:54.572Z,2.53
2023-01-07T22:36:29.807Z,2.50
2023-01-07T22:39:01.045Z,2.55
2023-01-07T22:41:31.159Z,2.40
2023-01-07T22:44:00.600Z,2.58
2023-01-07T22:46:34.305Z,2.40
2023-01-07T22:49:02.474Z,2.70
2023-01-07T22:51:36.512Z,2.63
2023-01-07T22:54:06.403Z,2.33
2023-01-07T22:56:35.853Z,2.63
2023-01-07T22:59:06.197Z,2.70
2023-01-07T23:01:37.886Z,2.80
2023-01-07T23:04:06.246Z,2.70
2023-01-07T23:06:34.652Z,2.50
2023-01-07T23:09:02.820Z,2.78
2023-01-07T23:11:51.616Z,2.78
2023-01-07T23:14:21.986Z,2.80
2023-01-07T23:16:52.870Z,2.95
2023-01-07T23:19:22.383Z,3.17
2023-01-07T23:21:52.178Z,3.00
2023-01-07T23:24:21.167Z,2.97
2023-01-07T23:26:50.750Z,3.00
2023-01-07T23:29:19.662Z,3.42
2023-01-07T23:31:48.314Z,3.03
2023-01-07T23:34:18.259Z,2.65
2023-01-07T23:36:46.323Z,2.83
2023-01-07T23:39:14.460Z,2.72
2023-01-07T23:41:42.502Z,2.78
2023-01-07T23:44:11.050Z,3.20
2023-01-07T23:46:39.148Z,2.70
2023-01-07T23:49:07.294Z,2.72
2023-01-07T23:51:36.846Z,2.80
2023-01-07T23:54:05.201Z,2.40
2023-01-07T23:56:34.116Z,2.60
2023-01-07T23:59:03.126Z,2.55
